<?xml version="1.0" encoding="UTF-8" standalone="no" ?>
<gpx xmlns="http://www.topografix.com/GPX/1/1" xmlns:xsi="http://www.w3.org/2001/XMLSchema-instance" xsi:schemaLocation="http://www.topografix.com/GPX/1/1 http://www.topografix.com/GPX/1/1/gpx.xsd" version="1.1" creator="VisuGPX - https://www.visugpx.com">
  <metadata>
    <name>Roche Parstire</name>
    <desc><![CDATA[Une classique à raquettes ou à skis de randonnée.]]></desc>
  </metadata>
  <trk>
    <name><![CDATA[2016-01-24-01]]></name>
    <trkseg>
      <trkpt lat="45.68415" lon="6.57801">
        <ele>1232.5</ele>
        <time>2016-01-24T08:41:37Z</time>
      </trkpt>
      <trkpt lat="45.68415" lon="6.57801">
        <ele>1232.5</ele>
        <time>2016-01-24T08:41:38Z</time>
      </trkpt>
      <trkpt lat="45.68454" lon="6.57837">
        <ele>1236.4</ele>
        <time>2016-01-24T08:49:28Z</time>
      </trkpt>
      <trkpt lat="45.6848" lon="6.57889">
        <ele>1241.2</ele>
        <time>2016-01-24T08:50:13Z</time>
      </trkpt>
      <trkpt lat="45.68478" lon="6.57955">
        <ele>1246.2</ele>
        <time>2016-01-24T08:50:58Z</time>
      </trkpt>
      <trkpt lat="45.6849" lon="6.58017">
        <ele>1251.7</ele>
        <time>2016-01-24T08:51:39Z</time>
      </trkpt>
      <trkpt lat="45.68479" lon="6.5808">
        <ele>1257.4</ele>
        <time>2016-01-24T08:52:34Z</time>
      </trkpt>
      <trkpt lat="45.68518" lon="6.58111">
        <ele>1268.5</ele>
        <time>2016-01-24T08:58:29Z</time>
      </trkpt>
      <trkpt lat="45.68543" lon="6.58166">
        <ele>1284.3</ele>
        <time>2016-01-24T09:00:07Z</time>
      </trkpt>
      <trkpt lat="45.68588" lon="6.58182">
        <ele>1303</ele>
        <time>2016-01-24T09:01:40Z</time>
      </trkpt>
      <trkpt lat="45.68617" lon="6.5823">
        <ele>1325.4</ele>
        <time>2016-01-24T09:05:34Z</time>
      </trkpt>
      <trkpt lat="45.68619" lon="6.58295">
        <ele>1337.3</ele>
        <time>2016-01-24T09:06:41Z</time>
      </trkpt>
      <trkpt lat="45.68632" lon="6.58357">
        <ele>1351.1</ele>
        <time>2016-01-24T09:08:17Z</time>
      </trkpt>
      <trkpt lat="45.68641" lon="6.58421">
        <ele>1365.9</ele>
        <time>2016-01-24T09:09:35Z</time>
      </trkpt>
      <trkpt lat="45.68661" lon="6.58479">
        <ele>1382.2</ele>
        <time>2016-01-24T09:13:00Z</time>
      </trkpt>
      <trkpt lat="45.68671" lon="6.58543">
        <ele>1393.2</ele>
        <time>2016-01-24T09:14:04Z</time>
      </trkpt>
      <trkpt lat="45.68677" lon="6.58607">
        <ele>1406.8</ele>
        <time>2016-01-24T09:15:07Z</time>
      </trkpt>
      <trkpt lat="45.68697" lon="6.58666">
        <ele>1423.8</ele>
        <time>2016-01-24T09:16:17Z</time>
      </trkpt>
      <trkpt lat="45.68693" lon="6.5873">
        <ele>1434.9</ele>
        <time>2016-01-24T09:18:35Z</time>
      </trkpt>
      <trkpt lat="45.68691" lon="6.58796">
        <ele>1448.5</ele>
        <time>2016-01-24T09:19:41Z</time>
      </trkpt>
      <trkpt lat="45.68681" lon="6.58859">
        <ele>1468.2</ele>
        <time>2016-01-24T09:21:16Z</time>
      </trkpt>
      <trkpt lat="45.68689" lon="6.58924">
        <ele>1482.4</ele>
        <time>2016-01-24T09:22:15Z</time>
      </trkpt>
      <trkpt lat="45.68705" lon="6.58984">
        <ele>1495.7</ele>
        <time>2016-01-24T09:23:21Z</time>
      </trkpt>
      <trkpt lat="45.68723" lon="6.59043">
        <ele>1509.3</ele>
        <time>2016-01-24T09:24:26Z</time>
      </trkpt>
      <trkpt lat="45.68733" lon="6.59107">
        <ele>1525.3</ele>
        <time>2016-01-24T09:25:33Z</time>
      </trkpt>
      <trkpt lat="45.68741" lon="6.5917">
        <ele>1540.4</ele>
        <time>2016-01-24T09:26:51Z</time>
      </trkpt>
      <trkpt lat="45.68752" lon="6.59233">
        <ele>1549.6</ele>
        <time>2016-01-24T09:27:51Z</time>
      </trkpt>
      <trkpt lat="45.68766" lon="6.59294">
        <ele>1569.5</ele>
        <time>2016-01-24T09:29:40Z</time>
      </trkpt>
      <trkpt lat="45.68811" lon="6.59306">
        <ele>1590</ele>
        <time>2016-01-24T09:31:21Z</time>
      </trkpt>
      <trkpt lat="45.68796" lon="6.59367">
        <ele>1613.9</ele>
        <time>2016-01-24T09:33:33Z</time>
      </trkpt>
      <trkpt lat="45.68819" lon="6.59422">
        <ele>1632.6</ele>
        <time>2016-01-24T09:34:57Z</time>
      </trkpt>
      <trkpt lat="45.6884" lon="6.5948">
        <ele>1647.4</ele>
        <time>2016-01-24T09:36:04Z</time>
      </trkpt>
      <trkpt lat="45.6887" lon="6.5953">
        <ele>1662</ele>
        <time>2016-01-24T09:37:10Z</time>
      </trkpt>
      <trkpt lat="45.68907" lon="6.59567">
        <ele>1673</ele>
        <time>2016-01-24T09:38:04Z</time>
      </trkpt>
      <trkpt lat="45.6893" lon="6.59623">
        <ele>1682.8</ele>
        <time>2016-01-24T09:39:02Z</time>
      </trkpt>
      <trkpt lat="45.68962" lon="6.5967">
        <ele>1693.7</ele>
        <time>2016-01-24T09:39:57Z</time>
      </trkpt>
      <trkpt lat="45.68987" lon="6.59724">
        <ele>1700.5</ele>
        <time>2016-01-24T09:45:25Z</time>
      </trkpt>
      <trkpt lat="45.69006" lon="6.59782">
        <ele>1704.4</ele>
        <time>2016-01-24T09:46:28Z</time>
      </trkpt>
      <trkpt lat="45.68987" lon="6.59841">
        <ele>1713.6</ele>
        <time>2016-01-24T09:52:53Z</time>
      </trkpt>
      <trkpt lat="45.68977" lon="6.59905">
        <ele>1721.4</ele>
        <time>2016-01-24T09:53:55Z</time>
      </trkpt>
      <trkpt lat="45.68936" lon="6.59933">
        <ele>1735.3</ele>
        <time>2016-01-24T09:55:09Z</time>
      </trkpt>
      <trkpt lat="45.689" lon="6.59974">
        <ele>1747.4</ele>
        <time>2016-01-24T09:56:14Z</time>
      </trkpt>
      <trkpt lat="45.68856" lon="6.59989">
        <ele>1756.9</ele>
        <time>2016-01-24T09:57:10Z</time>
      </trkpt>
      <trkpt lat="45.68811" lon="6.60009">
        <ele>1769.6</ele>
        <time>2016-01-24T09:58:09Z</time>
      </trkpt>
      <trkpt lat="45.68766" lon="6.60025">
        <ele>1784.3</ele>
        <time>2016-01-24T09:59:26Z</time>
      </trkpt>
      <trkpt lat="45.68729" lon="6.59985">
        <ele>1793.2</ele>
        <time>2016-01-24T10:00:22Z</time>
      </trkpt>
      <trkpt lat="45.68683" lon="6.59982">
        <ele>1801.7</ele>
        <time>2016-01-24T10:01:20Z</time>
      </trkpt>
      <trkpt lat="45.68654" lon="6.60032">
        <ele>1814.2</ele>
        <time>2016-01-24T10:02:39Z</time>
      </trkpt>
      <trkpt lat="45.68634" lon="6.6009">
        <ele>1825.4</ele>
        <time>2016-01-24T10:03:35Z</time>
      </trkpt>
      <trkpt lat="45.68608" lon="6.60143">
        <ele>1832.4</ele>
        <time>2016-01-24T10:04:37Z</time>
      </trkpt>
      <trkpt lat="45.68566" lon="6.60119">
        <ele>1842.6</ele>
        <time>2016-01-24T10:05:44Z</time>
      </trkpt>
      <trkpt lat="45.6855" lon="6.60059">
        <ele>1850.4</ele>
        <time>2016-01-24T10:06:28Z</time>
      </trkpt>
      <trkpt lat="45.68518" lon="6.60013">
        <ele>1860.8</ele>
        <time>2016-01-24T10:07:19Z</time>
      </trkpt>
      <trkpt lat="45.68479" lon="6.60047">
        <ele>1867.9</ele>
        <time>2016-01-24T10:08:03Z</time>
      </trkpt>
      <trkpt lat="45.68459" lon="6.60106">
        <ele>1875.4</ele>
        <time>2016-01-24T10:08:51Z</time>
      </trkpt>
      <trkpt lat="45.6842" lon="6.60072">
        <ele>1887.9</ele>
        <time>2016-01-24T10:18:10Z</time>
      </trkpt>
      <trkpt lat="45.68375" lon="6.6006">
        <ele>1892.9</ele>
        <time>2016-01-24T10:18:58Z</time>
      </trkpt>
      <trkpt lat="45.68332" lon="6.60076">
        <ele>1902.8</ele>
        <time>2016-01-24T10:19:49Z</time>
      </trkpt>
      <trkpt lat="45.68286" lon="6.60082">
        <ele>1908.1</ele>
        <time>2016-01-24T10:20:36Z</time>
      </trkpt>
      <trkpt lat="45.68242" lon="6.601">
        <ele>1910.8</ele>
        <time>2016-01-24T10:21:19Z</time>
      </trkpt>
      <trkpt lat="45.68197" lon="6.60111">
        <ele>1924.3</ele>
        <time>2016-01-24T10:22:22Z</time>
      </trkpt>
      <trkpt lat="45.6816" lon="6.60148">
        <ele>1941.9</ele>
        <time>2016-01-24T10:23:38Z</time>
      </trkpt>
      <trkpt lat="45.68116" lon="6.60163">
        <ele>1950.1</ele>
        <time>2016-01-24T10:24:42Z</time>
      </trkpt>
      <trkpt lat="45.68071" lon="6.6015">
        <ele>1955.3</ele>
        <time>2016-01-24T10:25:26Z</time>
      </trkpt>
      <trkpt lat="45.68026" lon="6.60154">
        <ele>1959.5</ele>
        <time>2016-01-24T10:26:06Z</time>
      </trkpt>
      <trkpt lat="45.67982" lon="6.60168">
        <ele>1962.4</ele>
        <time>2016-01-24T10:26:45Z</time>
      </trkpt>
      <trkpt lat="45.67937" lon="6.60158">
        <ele>1970.4</ele>
        <time>2016-01-24T10:27:33Z</time>
      </trkpt>
      <trkpt lat="45.679" lon="6.60122">
        <ele>1985.1</ele>
        <time>2016-01-24T10:28:51Z</time>
      </trkpt>
      <trkpt lat="45.67855" lon="6.60114">
        <ele>2008.2</ele>
        <time>2016-01-24T10:31:07Z</time>
      </trkpt>
      <trkpt lat="45.67813" lon="6.60088">
        <ele>2036.5</ele>
        <time>2016-01-24T10:33:23Z</time>
      </trkpt>
      <trkpt lat="45.67769" lon="6.60075">
        <ele>2059.2</ele>
        <time>2016-01-24T10:34:54Z</time>
      </trkpt>
      <trkpt lat="45.67724" lon="6.60083">
        <ele>2068.3</ele>
        <time>2016-01-24T10:35:48Z</time>
      </trkpt>
      <trkpt lat="45.67679" lon="6.60071">
        <ele>2081</ele>
        <time>2016-01-24T10:36:46Z</time>
      </trkpt>
      <trkpt lat="45.67634" lon="6.60077">
        <ele>2089.2</ele>
        <time>2016-01-24T10:37:36Z</time>
      </trkpt>
      <trkpt lat="45.67589" lon="6.60069">
        <ele>2102</ele>
        <time>2016-01-24T10:38:34Z</time>
      </trkpt>
      <trkpt lat="45.67544" lon="6.60074">
        <ele>2101.2</ele>
        <time>2016-01-24T11:04:56Z</time>
      </trkpt>
      <trkpt lat="45.67506" lon="6.6011">
        <ele>2081.7</ele>
        <time>2016-01-24T11:05:52Z</time>
      </trkpt>
      <trkpt lat="45.67473" lon="6.60153">
        <ele>2066.9</ele>
        <time>2016-01-24T11:06:40Z</time>
      </trkpt>
      <trkpt lat="45.67447" lon="6.60207">
        <ele>2048.3</ele>
        <time>2016-01-24T11:07:42Z</time>
      </trkpt>
      <trkpt lat="45.67423" lon="6.60262">
        <ele>2027.6</ele>
        <time>2016-01-24T11:08:34Z</time>
      </trkpt>
      <trkpt lat="45.67397" lon="6.60315">
        <ele>2006.5</ele>
        <time>2016-01-24T11:09:14Z</time>
      </trkpt>
      <trkpt lat="45.6737" lon="6.60367">
        <ele>1986.4</ele>
        <time>2016-01-24T11:09:49Z</time>
      </trkpt>
      <trkpt lat="45.67357" lon="6.60429">
        <ele>1969.1</ele>
        <time>2016-01-24T11:12:28Z</time>
      </trkpt>
      <trkpt lat="45.67378" lon="6.60486">
        <ele>1962.9</ele>
        <time>2016-01-24T11:13:08Z</time>
      </trkpt>
      <trkpt lat="45.67403" lon="6.60541">
        <ele>1959</ele>
        <time>2016-01-24T11:13:54Z</time>
      </trkpt>
      <trkpt lat="45.6744" lon="6.60578">
        <ele>1954</ele>
        <time>2016-01-24T11:14:39Z</time>
      </trkpt>
      <trkpt lat="45.6748" lon="6.60546">
        <ele>1949.2</ele>
        <time>2016-01-24T11:16:05Z</time>
      </trkpt>
      <trkpt lat="45.67524" lon="6.60535">
        <ele>1944.7</ele>
        <time>2016-01-24T11:16:40Z</time>
      </trkpt>
      <trkpt lat="45.67569" lon="6.6052">
        <ele>1941.3</ele>
        <time>2016-01-24T11:17:21Z</time>
      </trkpt>
      <trkpt lat="45.67612" lon="6.60502">
        <ele>1936.1</ele>
        <time>2016-01-24T11:17:58Z</time>
      </trkpt>
      <trkpt lat="45.67655" lon="6.60476">
        <ele>1932.6</ele>
        <time>2016-01-24T11:18:34Z</time>
      </trkpt>
      <trkpt lat="45.67699" lon="6.60458">
        <ele>1928</ele>
        <time>2016-01-24T11:19:07Z</time>
      </trkpt>
      <trkpt lat="45.67741" lon="6.60434">
        <ele>1924.9</ele>
        <time>2016-01-24T11:19:55Z</time>
      </trkpt>
      <trkpt lat="45.67784" lon="6.60414">
        <ele>1922.2</ele>
        <time>2016-01-24T11:20:35Z</time>
      </trkpt>
      <trkpt lat="45.67826" lon="6.60388">
        <ele>1920.2</ele>
        <time>2016-01-24T11:21:15Z</time>
      </trkpt>
      <trkpt lat="45.67871" lon="6.60396">
        <ele>1917.7</ele>
        <time>2016-01-24T11:22:00Z</time>
      </trkpt>
      <trkpt lat="45.67915" lon="6.6041">
        <ele>1912.2</ele>
        <time>2016-01-24T11:22:44Z</time>
      </trkpt>
      <trkpt lat="45.67959" lon="6.60426">
        <ele>1908.4</ele>
        <time>2016-01-24T11:23:25Z</time>
      </trkpt>
      <trkpt lat="45.67998" lon="6.6046">
        <ele>1903.2</ele>
        <time>2016-01-24T11:24:07Z</time>
      </trkpt>
      <trkpt lat="45.68039" lon="6.60485">
        <ele>1900.4</ele>
        <time>2016-01-24T11:25:13Z</time>
      </trkpt>
      <trkpt lat="45.68036" lon="6.6042">
        <ele>1909.5</ele>
        <time>2016-01-24T12:20:16Z</time>
      </trkpt>
      <trkpt lat="45.68049" lon="6.60358">
        <ele>1923.5</ele>
        <time>2016-01-24T12:21:48Z</time>
      </trkpt>
      <trkpt lat="45.68079" lon="6.60308">
        <ele>1935.5</ele>
        <time>2016-01-24T12:24:02Z</time>
      </trkpt>
      <trkpt lat="45.68106" lon="6.60255">
        <ele>1941.9</ele>
        <time>2016-01-24T12:24:47Z</time>
      </trkpt>
      <trkpt lat="45.68114" lon="6.60192">
        <ele>1950.7</ele>
        <time>2016-01-24T12:25:54Z</time>
      </trkpt>
      <trkpt lat="45.68096" lon="6.60132">
        <ele>1959.5</ele>
        <time>2016-01-24T12:26:53Z</time>
      </trkpt>
      <trkpt lat="45.6814" lon="6.6012">
        <ele>1960.2</ele>
        <time>2016-01-24T12:34:29Z</time>
      </trkpt>
      <trkpt lat="45.68186" lon="6.60124">
        <ele>1945</ele>
        <time>2016-01-24T12:35:10Z</time>
      </trkpt>
      <trkpt lat="45.6823" lon="6.6011">
        <ele>1920.8</ele>
        <time>2016-01-24T12:36:01Z</time>
      </trkpt>
      <trkpt lat="45.68273" lon="6.60088">
        <ele>1914.4</ele>
        <time>2016-01-24T12:36:40Z</time>
      </trkpt>
      <trkpt lat="45.68318" lon="6.60077">
        <ele>1914.5</ele>
        <time>2016-01-24T12:37:30Z</time>
      </trkpt>
      <trkpt lat="45.68362" lon="6.60061">
        <ele>1903.7</ele>
        <time>2016-01-24T12:38:10Z</time>
      </trkpt>
      <trkpt lat="45.68407" lon="6.60048">
        <ele>1897.1</ele>
        <time>2016-01-24T12:38:51Z</time>
      </trkpt>
      <trkpt lat="45.68452" lon="6.6004">
        <ele>1888.5</ele>
        <time>2016-01-24T12:39:32Z</time>
      </trkpt>
      <trkpt lat="45.68496" lon="6.60028">
        <ele>1874</ele>
        <time>2016-01-24T12:40:12Z</time>
      </trkpt>
      <trkpt lat="45.68538" lon="6.60003">
        <ele>1862.4</ele>
        <time>2016-01-24T12:40:51Z</time>
      </trkpt>
      <trkpt lat="45.68581" lon="6.59982">
        <ele>1848.6</ele>
        <time>2016-01-24T12:41:31Z</time>
      </trkpt>
      <trkpt lat="45.68624" lon="6.59962">
        <ele>1821</ele>
        <time>2016-01-24T12:42:10Z</time>
      </trkpt>
      <trkpt lat="45.68668" lon="6.59981">
        <ele>1811</ele>
        <time>2016-01-24T12:42:50Z</time>
      </trkpt>
      <trkpt lat="45.68714" lon="6.59982">
        <ele>1802.7</ele>
        <time>2016-01-24T12:43:36Z</time>
      </trkpt>
      <trkpt lat="45.68754" lon="6.60013">
        <ele>1795</ele>
        <time>2016-01-24T12:44:11Z</time>
      </trkpt>
      <trkpt lat="45.68799" lon="6.60028">
        <ele>1781.2</ele>
        <time>2016-01-24T12:45:01Z</time>
      </trkpt>
      <trkpt lat="45.68839" lon="6.59998">
        <ele>1767.7</ele>
        <time>2016-01-24T12:45:38Z</time>
      </trkpt>
      <trkpt lat="45.68883" lon="6.59982">
        <ele>1758.2</ele>
        <time>2016-01-24T12:46:16Z</time>
      </trkpt>
      <trkpt lat="45.68919" lon="6.59942">
        <ele>1747</ele>
        <time>2016-01-24T12:46:54Z</time>
      </trkpt>
      <trkpt lat="45.68964" lon="6.59936">
        <ele>1733.5</ele>
        <time>2016-01-24T12:47:37Z</time>
      </trkpt>
      <trkpt lat="45.68999" lon="6.59893">
        <ele>1719</ele>
        <time>2016-01-24T12:48:14Z</time>
      </trkpt>
      <trkpt lat="45.69003" lon="6.59828">
        <ele>1712.7</ele>
        <time>2016-01-24T12:48:51Z</time>
      </trkpt>
      <trkpt lat="45.69005" lon="6.59763">
        <ele>1708.9</ele>
        <time>2016-01-24T12:54:10Z</time>
      </trkpt>
      <trkpt lat="45.68983" lon="6.59705">
        <ele>1705.7</ele>
        <time>2016-01-24T12:55:08Z</time>
      </trkpt>
      <trkpt lat="45.68959" lon="6.59649">
        <ele>1700.7</ele>
        <time>2016-01-24T12:56:00Z</time>
      </trkpt>
      <trkpt lat="45.68932" lon="6.59598">
        <ele>1687.2</ele>
        <time>2016-01-24T12:56:39Z</time>
      </trkpt>
      <trkpt lat="45.68898" lon="6.59554">
        <ele>1678</ele>
        <time>2016-01-24T12:57:17Z</time>
      </trkpt>
      <trkpt lat="45.68862" lon="6.59515">
        <ele>1666.4</ele>
        <time>2016-01-24T12:57:57Z</time>
      </trkpt>
      <trkpt lat="45.68829" lon="6.5947">
        <ele>1651.1</ele>
        <time>2016-01-24T12:58:39Z</time>
      </trkpt>
      <trkpt lat="45.68792" lon="6.59433">
        <ele>1634</ele>
        <time>2016-01-24T12:59:23Z</time>
      </trkpt>
      <trkpt lat="45.68784" lon="6.5937">
        <ele>1616.5</ele>
        <time>2016-01-24T13:00:28Z</time>
      </trkpt>
      <trkpt lat="45.68788" lon="6.59306">
        <ele>1594.7</ele>
        <time>2016-01-24T13:01:48Z</time>
      </trkpt>
      <trkpt lat="45.68763" lon="6.59252">
        <ele>1565.1</ele>
        <time>2016-01-24T13:03:05Z</time>
      </trkpt>
      <trkpt lat="45.68746" lon="6.59191">
        <ele>1553.2</ele>
        <time>2016-01-24T13:05:01Z</time>
      </trkpt>
      <trkpt lat="45.68744" lon="6.59125">
        <ele>1540.7</ele>
        <time>2016-01-24T13:05:43Z</time>
      </trkpt>
      <trkpt lat="45.68727" lon="6.59065">
        <ele>1525.8</ele>
        <time>2016-01-24T13:06:21Z</time>
      </trkpt>
      <trkpt lat="45.68717" lon="6.59001">
        <ele>1509.2</ele>
        <time>2016-01-24T13:07:04Z</time>
      </trkpt>
      <trkpt lat="45.687" lon="6.58941">
        <ele>1498.8</ele>
        <time>2016-01-24T13:07:43Z</time>
      </trkpt>
      <trkpt lat="45.6868" lon="6.58882">
        <ele>1483.5</ele>
        <time>2016-01-24T13:08:23Z</time>
      </trkpt>
      <trkpt lat="45.68692" lon="6.5882">
        <ele>1464.3</ele>
        <time>2016-01-24T13:09:45Z</time>
      </trkpt>
      <trkpt lat="45.687" lon="6.58756">
        <ele>1448.2</ele>
        <time>2016-01-24T13:10:37Z</time>
      </trkpt>
      <trkpt lat="45.68706" lon="6.58692">
        <ele>1434.4</ele>
        <time>2016-01-24T13:11:19Z</time>
      </trkpt>
      <trkpt lat="45.6869" lon="6.58632">
        <ele>1422.9</ele>
        <time>2016-01-24T13:12:09Z</time>
      </trkpt>
      <trkpt lat="45.68679" lon="6.58568">
        <ele>1408.8</ele>
        <time>2016-01-24T13:12:51Z</time>
      </trkpt>
      <trkpt lat="45.68671" lon="6.58503">
        <ele>1396</ele>
        <time>2016-01-24T13:13:31Z</time>
      </trkpt>
      <trkpt lat="45.68648" lon="6.58448">
        <ele>1383.4</ele>
        <time>2016-01-24T13:14:15Z</time>
      </trkpt>
      <trkpt lat="45.68649" lon="6.58383">
        <ele>1369.4</ele>
        <time>2016-01-24T13:14:56Z</time>
      </trkpt>
      <trkpt lat="45.6863" lon="6.58324">
        <ele>1354.8</ele>
        <time>2016-01-24T13:15:50Z</time>
      </trkpt>
      <trkpt lat="45.68618" lon="6.5826">
        <ele>1342.2</ele>
        <time>2016-01-24T13:16:31Z</time>
      </trkpt>
      <trkpt lat="45.68631" lon="6.58197">
        <ele>1332.8</ele>
        <time>2016-01-24T13:17:10Z</time>
      </trkpt>
      <trkpt lat="45.68588" lon="6.58176">
        <ele>1315.1</ele>
        <time>2016-01-24T13:18:51Z</time>
      </trkpt>
      <trkpt lat="45.68544" lon="6.58162">
        <ele>1295.4</ele>
        <time>2016-01-24T13:19:40Z</time>
      </trkpt>
      <trkpt lat="45.68499" lon="6.5815">
        <ele>1274.6</ele>
        <time>2016-01-24T13:22:18Z</time>
      </trkpt>
      <trkpt lat="45.6848" lon="6.58091">
        <ele>1269.5</ele>
        <time>2016-01-24T13:23:33Z</time>
      </trkpt>
      <trkpt lat="45.68497" lon="6.58031">
        <ele>1265.1</ele>
        <time>2016-01-24T13:25:33Z</time>
      </trkpt>
      <trkpt lat="45.68483" lon="6.57969">
        <ele>1260</ele>
        <time>2016-01-24T13:26:12Z</time>
      </trkpt>
      <trkpt lat="45.68489" lon="6.57903">
        <ele>1255.4</ele>
        <time>2016-01-24T13:26:50Z</time>
      </trkpt>
      <trkpt lat="45.68465" lon="6.57848">
        <ele>1250</ele>
        <time>2016-01-24T13:27:26Z</time>
      </trkpt>
      <trkpt lat="45.6843" lon="6.57805">
        <ele>1245.4</ele>
        <time>2016-01-24T13:28:03Z</time>
      </trkpt>
      <trkpt lat="45.6842" lon="6.57796">
        <ele>1242.9</ele>
        <time>2016-01-24T13:28:48Z</time>
      </trkpt>
    </trkseg>
  </trk>
</gpx>